createdAt,value
2023-02-28T00:01:35.639Z,73.12
2023-02-28T00:04:03.815Z,73.50
2023-02-28T00:06:31.612Z,74.04
2023-02-28T00:08:59.352Z,74.53
2023-02-28T00:11:28.475Z,73.65
2023-02-28T00:13:57.382Z,73.65
2023-02-28T00:16:25.260Z,73.82
2023-02-28T00:18:54.814Z,73.46
2023-02-28T00:21:23.621Z,72.95
2023-02-28T00:23:51.452Z,72.63
2023-02-28T00:26:21.963Z,72.90
2023-02-28T00:28:50.084Z,73.19
2023-02-28T00:31:18.770Z,74.13
2023-02-28T00:33:46.642Z,73.81
2023-02-28T00:36:14.425Z,73.47
2023-02-28T00:38:43.042Z,74.19
2023-02-28T00:41:11.465Z,73.02
2023-02-28T00:43:41.246Z,74.40
2023-02-28T00:46:10.412Z,74.44
2023-02-28T00:48:39.276Z,73.28
2023-02-28T00:51:08.810Z,72.50
2023-02-28T00:53:38.298Z,72.88
2023-02-28T00:56:07.572Z,72.69
2023-02-28T00:58:37.170Z,72.18
2023-02-28T01:01:06.955Z,72.78
2023-02-28T01:03:35.784Z,72.09
2023-02-28T01:06:03.647Z,72.04
2023-02-28T01:08:32.645Z,72.73
2023-02-28T01:11:15.390Z,73.92
2023-02-28T01:13:45.814Z,73.94
2023-02-28T01:16:16.637Z,72.93
2023-02-28T01:18:45.892Z,72.68
2023-02-28T01:21:19.747Z,73.06
2023-02-28T01:23:49.640Z,72.70
2023-02-28T01:26:25.001Z,72.65
2023-02-28T01:28:55.128Z,72.27
2023-02-28T01:31:24.210Z,73.88
2023-02-28T01:33:53.268Z,74.02
2023-02-28T01:36:25.623Z,73.21
2023-02-28T01:38:54.359Z,73.33
2023-02-28T01:41:33.311Z,72.08
2023-02-28T01:44:59.946Z,73.20
2023-02-28T01:47:40.000Z,71.90
2023-02-28T01:50:18.023Z,71.65
2023-02-28T01:52:48.850Z,71.58
2023-02-28T01:55:20.595Z,72.10
2023-02-28T01:57:56.610Z,71.83
2023-02-28T02:00:28.499Z,71.99
2023-02-28T02:03:03.212Z,71.58
2023-02-28T02:05:33.281Z,71.32
2023-02-28T02:08:13.499Z,72.54
2023-02-28T02:10:55.113Z,71.69
2023-02-28T02:14:15.505Z,71.97
2023-02-28T02:17:12.825Z,71.85
2023-02-28T02:20:36.066Z,71.57
2023-02-28T02:23:48.866Z,71.45
2023-02-28T02:26:38.677Z,71.82
2023-02-28T02:30:08.506Z,71.75
2023-02-28T02:33:46.409Z,72.13
2023-02-28T02:36:22.473Z,71.39
2023-02-28T02:40:00.943Z,71.87
2023-02-28T02:42:43.895Z,72.67
2023-02-28T02:45:29.384Z,73.30
2023-02-28T02:48:01.489Z,72.82
2023-02-28T02:50:42.734Z,72.24
2023-02-28T02:53:12.828Z,73.28
2023-02-28T02:55:48.345Z,73.21
2023-02-28T02:58:23.635Z,72.18
2023-02-28T03:01:00.420Z,72.13
2023-02-28T03:03:30.969Z,71.97
2023-02-28T03:06:02.557Z,72.53
2023-02-28T03:08:39.166Z,71.91
2023-02-28T03:11:15.973Z,71.52
2023-02-28T03:14:27.366Z,71.86
2023-02-28T03:17:16.236Z,71.83
2023-02-28T03:20:08.147Z,71.89
2023-02-28T03:23:16.372Z,71.79
2023-02-28T03:26:09.225Z,71.97
2023-02-28T03:28:50.826Z,71.84
2023-02-28T03:31:39.128Z,73.01
2023-02-28T03:34:25.828Z,72.64
2023-02-28T03:37:00.786Z,72.09
2023-02-28T03:39:43.379Z,72.63
2023-02-28T03:42:23.324Z,73.48
2023-02-28T03:45:10.377Z,72.78
2023-02-28T03:48:06.741Z,72.42
2023-02-28T03:50:47.060Z,72.40
2023-02-28T03:53:19.372Z,72.55
2023-02-28T03:55:59.552Z,72.13
2023-02-28T03:58:45.340Z,72.79
2023-02-28T04:01:29.894Z,73.04
2023-02-28T04:03:59.665Z,72.83
2023-02-28T04:06:28.442Z,72.99
2023-02-28T04:08:57.096Z,74.31
2023-02-28T04:11:56.742Z,74.68
2023-02-28T04:14:25.866Z,75.56
2023-02-28T04:16:53.868Z,75.31
2023-02-28T04:19:23.507Z,75.60
2023-02-28T04:21:55.083Z,75.66
2023-02-28T04:24:29.101Z,76.09
2023-02-28T04:26:59.498Z,76.74
2023-02-28T04:29:31.472Z,77.12
2023-02-28T04:32:02.998Z,77.26
2023-02-28T04:34:33.917Z,77.96
2023-02-28T04:37:13.418Z,77.55
2023-02-28T04:39:43.949Z,75.25
2023-02-28T04:42:13.259Z,74.65
2023-02-28T04:44:41.110Z,74.44
2023-02-28T04:47:09.832Z,73.91
2023-02-28T04:49:37.585Z,74.27
2023-02-28T04:52:05.604Z,74.52
2023-02-28T04:54:34.301Z,74.75
2023-02-28T04:57:02.673Z,74.52
2023-02-28T04:59:30.438Z,75.03
2023-02-28T05:01:58.208Z,75.40
2023-02-28T05:04:27.008Z,75.57
2023-02-28T05:06:54.809Z,74.91
2023-02-28T05:09:22.563Z,74.91
2023-02-28T05:11:50.302Z,75.15
2023-02-28T05:14:18.066Z,75.34
2023-02-28T05:16:45.868Z,75.21
2023-02-28T05:19:14.536Z,75.57
2023-02-28T05:21:55.114Z,76.30
2023-02-28T05:24:26.012Z,76.30
2023-02-28T05:26:55.897Z,75.89
2023-02-28T05:29:24.769Z,75.45
2023-02-28T05:31:52.795Z,76.19
2023-02-28T05:34:20.665Z,76.76
2023-02-28T05:36:48.513Z,75.98
2023-02-28T05:39:16.416Z,75.60
2023-02-28T05:41:45.149Z,76.09
2023-02-28T05:44:13.586Z,75.60
2023-02-28T05:46:42.357Z,75.40
2023-02-28T05:49:10.165Z,75.62
2023-02-28T05:51:40.953Z,75.34
2023-02-28T05:54:09.921Z,75.95
2023-02-28T05:56:40.215Z,75.41
2023-02-28T05:59:08.590Z,75.78
2023-02-28T06:01:49.139Z,75.64
2023-02-28T06:04:31.616Z,75.82
2023-02-28T06:07:01.052Z,75.25
2023-02-28T06:09:29.189Z,75.14
2023-02-28T06:12:00.836Z,75.18
2023-02-28T06:14:28.638Z,75.09
2023-02-28T06:16:58.981Z,73.89
2023-02-28T06:19:27.647Z,74.37
2023-02-28T06:21:58.000Z,73.84
2023-02-28T06:24:32.345Z,74.46
2023-02-28T06:27:06.108Z,72.62
2023-02-28T06:29:37.021Z,72.18
2023-02-28T06:32:04.951Z,70.88
2023-02-28T06:34:37.646Z,70.13
2023-02-28T06:37:05.542Z,68.92
2023-02-28T06:39:34.375Z,69.19
2023-02-28T06:42:02.116Z,67.99
2023-02-28T06:44:36.497Z,67.95
2023-02-28T06:47:07.198Z,66.29
2023-02-28T06:49:38.013Z,69.10
2023-02-28T06:52:06.902Z,66.23
2023-02-28T06:54:34.659Z,65.75
2023-02-28T06:57:03.335Z,65.71
2023-02-28T06:59:31.127Z,67.95
2023-02-28T07:02:00.198Z,66.78
2023-02-28T07:04:29.575Z,63.90
2023-02-28T07:06:58.400Z,63.48
2023-02-28T07:09:31.115Z,64.05
2023-02-28T07:11:58.912Z,64.23
2023-02-28T07:14:27.122Z,63.05
2023-02-28T07:16:54.804Z,63.23
2023-02-28T07:19:22.599Z,62.65
2023-02-28T07:21:52.207Z,61.81
2023-02-28T07:24:21.903Z,61.61
2023-02-28T07:26:49.617Z,61.07
2023-02-28T07:29:17.400Z,60.48
2023-02-28T07:31:45.228Z,59.08
2023-02-28T07:34:13.313Z,60.72
2023-02-28T07:36:42.037Z,60.43
2023-02-28T07:39:11.335Z,60.79
2023-02-28T07:41:44.397Z,60.00
2023-02-28T07:44:13.220Z,59.54
2023-02-28T07:46:41.100Z,58.82
2023-02-28T07:49:09.832Z,59.07
2023-02-28T07:51:37.750Z,59.02
2023-02-28T07:54:06.732Z,59.12
2023-02-28T07:56:34.642Z,59.71
2023-02-28T07:59:02.793Z,60.04
2023-02-28T08:01:31.785Z,57.89
2023-02-28T08:04:00.631Z,58.10
2023-02-28T08:06:28.531Z,57.41
2023-02-28T08:08:57.726Z,56.80
2023-02-28T08:11:26.413Z,57.98
2023-02-28T08:13:56.890Z,57.53
2023-02-28T08:16:24.691Z,57.00
2023-02-28T08:18:54.312Z,57.60
2023-02-28T08:21:23.352Z,56.84
2023-02-28T08:23:52.789Z,57.31
2023-02-28T08:26:22.553Z,57.51
2023-02-28T08:28:50.864Z,56.32
2023-02-28T08:31:19.862Z,56.87
2023-02-28T08:33:49.760Z,56.98
2023-02-28T08:36:18.867Z,56.06
2023-02-28T08:38:48.537Z,55.97
2023-02-28T08:41:16.346Z,56.02
2023-02-28T08:43:45.435Z,56.27
2023-02-28T08:46:15.463Z,55.48
2023-02-28T08:48:44.966Z,56.30
2023-02-28T08:51:22.559Z,57.54
2023-02-28T08:53:50.565Z,55.71
2023-02-28T08:56:19.671Z,55.36
2023-02-28T08:58:50.411Z,54.79
2023-02-28T09:01:29.547Z,55.71
2023-02-28T09:03:59.194Z,55.60
2023-02-28T09:06:29.934Z,56.97
2023-02-28T09:09:04.280Z,58.46
2023-02-28T09:11:32.153Z,55.49
2023-02-28T09:14:01.728Z,54.85
2023-02-28T09:16:29.612Z,56.71
2023-02-28T09:18:57.507Z,56.99
2023-02-28T09:21:27.934Z,56.78
2023-02-28T09:23:56.816Z,56.59
2023-02-28T09:26:34.929Z,54.99
2023-02-28T09:29:12.348Z,54.75
2023-02-28T09:31:41.240Z,54.72
2023-02-28T09:34:09.202Z,55.11
2023-02-28T09:36:45.502Z,56.07
2023-02-28T09:39:16.727Z,55.70
2023-02-28T09:41:52.499Z,55.77
2023-02-28T09:44:46.007Z,56.29
2023-02-28T09:47:49.098Z,57.24
2023-02-28T09:50:37.202Z,56.99
2023-02-28T09:53:28.138Z,54.17
2023-02-28T09:56:02.937Z,54.18
2023-02-28T09:58:55.185Z,52.87
2023-02-28T10:01:52.478Z,53.33
2023-02-28T10:04:52.858Z,53.91
2023-02-28T10:08:36.840Z,54.18
2023-02-28T10:11:16.258Z,53.77
2023-02-28T10:14:13.386Z,54.11
2023-02-28T10:16:58.215Z,54.40
2023-02-28T10:19:52.755Z,52.87
2023-02-28T10:22:46.323Z,53.43
2023-02-28T10:25:28.449Z,52.48
2023-02-28T10:28:14.194Z,52.89
2023-02-28T10:30:51.961Z,53.48
2023-02-28T10:33:35.392Z,54.49
2023-02-28T10:36:10.854Z,55.06
2023-02-28T10:38:41.699Z,55.41
2023-02-28T10:41:35.862Z,54.91
2023-02-28T10:44:23.478Z,55.66
2023-02-28T10:46:53.156Z,54.92
2023-02-28T10:49:30.244Z,54.73
2023-02-28T10:52:02.459Z,57.11
2023-02-28T10:54:36.505Z,55.27
2023-02-28T10:57:26.338Z,52.99
2023-02-28T11:00:20.012Z,54.37
2023-02-28T11:02:47.859Z,54.34
2023-02-28T11:05:31.601Z,53.16
2023-02-28T11:08:17.680Z,52.28
2023-02-28T11:11:02.146Z,53.16
2023-02-28T11:13:36.930Z,54.02
2023-02-28T11:16:13.151Z,54.09
2023-02-28T11:18:56.928Z,55.16
2023-02-28T11:21:41.431Z,53.88
2023-02-28T11:24:31.527Z,55.14
2023-02-28T11:26:59.558Z,56.26
2023-02-28T11:29:33.666Z,56.23
2023-02-28T11:32:23.456Z,56.52
2023-02-28T11:35:37.567Z,56.78
2023-02-28T11:38:14.029Z,55.16
2023-02-28T11:41:08.918Z,57.44
2023-02-28T11:44:05.299Z,56.50
2023-02-28T11:46:51.412Z,55.87
2023-02-28T11:50:04.181Z,56.14
2023-02-28T11:53:12.238Z,55.94
2023-02-28T11:56:24.736Z,55.88
2023-02-28T11:59:39.768Z,55.06
2023-02-28T12:02:20.065Z,56.21
2023-02-28T12:05:32.414Z,56.45
2023-02-28T12:08:46.618Z,57.15
2023-02-28T12:12:20.515Z,57.59
2023-02-28T12:15:26.368Z,57.29
2023-02-28T12:18:19.809Z,57.01
2023-02-28T12:21:03.113Z,55.69
2023-02-28T12:24:25.645Z,55.58
2023-02-28T12:26:56.865Z,55.27
2023-02-28T12:29:41.635Z,56.85
2023-02-28T12:32:54.448Z,54.82
2023-02-28T12:35:36.409Z,55.61
2023-02-28T12:38:45.762Z,56.86
2023-02-28T12:41:28.327Z,55.99
2023-02-28T12:44:15.634Z,54.98
2023-02-28T12:46:53.295Z,55.72
2023-02-28T12:49:50.971Z,56.04
2023-02-28T12:52:40.560Z,56.39
2023-02-28T12:55:42.323Z,56.00
2023-02-28T12:58:29.123Z,56.17
2023-02-28T13:01:44.781Z,56.80
2023-02-28T13:04:34.615Z,55.52
2023-02-28T13:07:26.698Z,56.32
2023-02-28T13:10:01.147Z,56.54
2023-02-28T13:12:30.499Z,56.67
2023-02-28T13:15:13.610Z,55.98
2023-02-28T13:17:42.860Z,56.61
2023-02-28T13:20:27.646Z,57.43
2023-02-28T13:22:58.427Z,56.28
2023-02-28T13:25:48.201Z,59.25
2023-02-28T13:28:54.314Z,57.62
2023-02-28T13:31:22.146Z,55.97
2023-02-28T13:34:00.521Z,55.67
2023-02-28T13:36:32.805Z,56.84
2023-02-28T13:39:37.868Z,57.09
2023-02-28T13:42:46.211Z,57.41
2023-02-28T13:45:13.871Z,58.73
2023-02-28T13:47:56.551Z,58.48
2023-02-28T13:50:39.976Z,58.56
2023-02-28T13:53:16.926Z,58.42
2023-02-28T13:56:08.123Z,58.33
2023-02-28T13:59:26.108Z,58.71
2023-02-28T14:02:21.370Z,59.32
2023-02-28T14:08:29.534Z,59.16
2023-02-28T14:11:24.347Z,60.17
2023-02-28T14:13:53.046Z,60.73
2023-02-28T14:16:30.702Z,62.05
2023-02-28T14:19:10.659Z,61.52
2023-02-28T14:21:59.413Z,62.10
2023-02-28T14:25:12.099Z,62.32
2023-02-28T14:28:43.297Z,61.64
2023-02-28T14:31:26.718Z,62.79
2023-02-28T14:34:44.476Z,62.76
2023-02-28T14:37:21.884Z,62.66
2023-02-28T14:39:50.818Z,62.84
2023-02-28T14:42:39.077Z,62.46
2023-02-28T14:45:19.422Z,62.71
2023-02-28T14:47:47.762Z,63.08
2023-02-28T14:50:27.851Z,63.70
2023-02-28T14:52:56.842Z,63.64
2023-02-28T14:55:37.257Z,63.79
2023-02-28T14:58:19.051Z,63.82
2023-02-28T15:00:54.862Z,63.35
2023-02-28T15:03:39.723Z,63.07
2023-02-28T15:06:19.130Z,64.59
2023-02-28T15:08:47.371Z,65.11
2023-02-28T15:11:22.337Z,64.77
2023-02-28T15:13:56.557Z,64.47
2023-02-28T15:16:42.566Z,64.22
2023-02-28T15:19:32.591Z,64.43
2023-02-28T15:22:13.529Z,64.71
2023-02-28T15:24:54.575Z,63.19
2023-02-28T15:27:33.894Z,63.33
2023-02-28T15:30:35.342Z,62.75
2023-02-28T15:33:17.976Z,63.87
2023-02-28T15:35:47.024Z,64.38
2023-02-28T15:38:28.037Z,63.97
2023-02-28T15:40:59.665Z,65.12
2023-02-28T15:43:40.436Z,64.65
2023-02-28T15:46:16.252Z,65.14
2023-02-28T15:48:48.684Z,65.28
2023-02-28T15:51:38.523Z,65.51
2023-02-28T15:54:25.625Z,65.26
2023-02-28T15:57:02.298Z,67.79
2023-02-28T15:59:33.132Z,68.36
2023-02-28T16:02:11.840Z,65.72
2023-02-28T16:05:07.250Z,66.19
2023-02-28T16:07:44.556Z,65.98
2023-02-28T16:10:17.678Z,65.97
2023-02-28T16:12:47.468Z,65.55
2023-02-28T16:15:27.979Z,66.84
2023-02-28T16:17:59.643Z,67.00
2023-02-28T16:20:32.262Z,66.61
2023-02-28T16:23:02.638Z,67.06
2023-02-28T16:25:44.926Z,67.33
2023-02-28T16:28:37.893Z,67.38
2023-02-28T16:31:09.179Z,66.74
2023-02-28T16:33:38.676Z,67.47
2023-02-28T16:36:13.755Z,68.42
2023-02-28T16:38:42.488Z,68.35
2023-02-28T16:41:28.417Z,68.42
2023-02-28T16:44:01.440Z,69.49
2023-02-28T16:46:36.509Z,69.46
2023-02-28T16:49:06.401Z,69.11
2023-02-28T16:51:35.964Z,69.22
2023-02-28T16:54:05.984Z,69.92
2023-02-28T16:56:36.431Z,69.87
2023-02-28T16:59:05.110Z,70.07
2023-02-28T17:01:34.523Z,70.71
2023-02-28T17:04:03.583Z,69.73
2023-02-28T17:06:32.819Z,69.87
2023-02-28T17:09:00.853Z,70.26
2023-02-28T17:11:30.777Z,69.87
2023-02-28T17:13:59.628Z,72.78
2023-02-28T17:16:35.981Z,71.17
2023-02-28T17:19:10.295Z,70.53
2023-02-28T17:21:42.744Z,70.76
2023-02-28T17:24:22.118Z,70.78
2023-02-28T17:27:02.506Z,71.15
2023-02-28T17:29:32.046Z,70.40
2023-02-28T17:32:03.169Z,70.76
2023-02-28T17:34:38.362Z,72.03
2023-02-28T17:37:09.994Z,71.21
2023-02-28T17:39:38.716Z,71.58
2023-02-28T17:42:09.132Z,70.84
2023-02-28T17:44:38.886Z,71.02
2023-02-28T17:47:11.024Z,70.42
2023-02-28T17:49:40.584Z,70.82
2023-02-28T17:52:11.391Z,71.10
2023-02-28T17:54:40.340Z,70.61
2023-02-28T17:57:17.485Z,71.80
2023-02-28T17:59:47.416Z,70.77
2023-02-28T18:02:18.024Z,72.22
2023-02-28T18:04:47.488Z,72.57
2023-02-28T18:07:15.284Z,70.85
2023-02-28T18:09:44.773Z,71.20
2023-02-28T18:12:14.262Z,71.25
2023-02-28T18:14:43.704Z,71.87
2023-02-28T18:17:13.967Z,73.04
2023-02-28T18:19:43.687Z,71.49
2023-02-28T18:22:12.437Z,70.39
2023-02-28T18:24:41.190Z,70.91
2023-02-28T18:27:11.780Z,71.24
2023-02-28T18:29:41.796Z,71.04
2023-02-28T18:32:10.627Z,71.48
2023-02-28T18:34:40.170Z,71.13
2023-02-28T18:37:11.734Z,71.18
2023-02-28T18:39:40.719Z,71.78
2023-02-28T18:42:09.095Z,71.56
2023-02-28T18:44:39.100Z,72.26
2023-02-28T18:47:09.021Z,73.98
2023-02-28T18:49:38.111Z,74.52
2023-02-28T18:52:06.851Z,75.11
2023-02-28T18:54:36.647Z,72.97
2023-02-28T18:57:05.987Z,74.37
2023-02-28T18:59:34.690Z,73.54
2023-02-28T19:02:03.396Z,73.90
2023-02-28T19:04:33.417Z,73.99
2023-02-28T19:07:03.022Z,73.35
2023-02-28T19:09:32.465Z,73.68
2023-02-28T19:12:01.945Z,73.89
2023-02-28T19:14:32.305Z,74.02
2023-02-28T19:17:01.004Z,74.40
2023-02-28T19:19:30.969Z,74.69
2023-02-28T19:22:00.526Z,74.48
2023-02-28T19:24:30.092Z,75.19
2023-02-28T19:26:59.792Z,76.19
2023-02-28T19:29:29.282Z,75.39
2023-02-28T19:31:58.944Z,74.65
2023-02-28T19:34:28.586Z,75.00
2023-02-28T19:36:58.103Z,75.75
2023-02-28T19:39:26.848Z,76.47
2023-02-28T19:41:55.562Z,76.80
2023-02-28T19:44:25.201Z,76.90
2023-02-28T19:46:54.672Z,76.24
2023-02-28T19:49:25.973Z,75.96
2023-02-28T19:51:55.679Z,75.59
2023-02-28T19:54:26.666Z,75.71
2023-02-28T19:56:57.757Z,75.92
2023-02-28T19:59:38.325Z,75.77
2023-02-28T20:02:20.486Z,76.14
2023-02-28T20:04:58.713Z,75.46
2023-02-28T20:07:30.331Z,76.12
2023-02-28T20:10:00.939Z,75.90
2023-02-28T20:12:30.461Z,75.37
2023-02-28T20:15:00.007Z,76.82
2023-02-28T20:17:30.675Z,76.38
2023-02-28T20:19:59.378Z,76.94
2023-02-28T20:22:28.893Z,76.87
2023-02-28T20:24:58.391Z,78.22
2023-02-28T20:27:28.023Z,76.99
2023-02-28T20:29:57.461Z,77.44
2023-02-28T20:32:26.612Z,78.01
2023-02-28T20:34:55.322Z,77.32
2023-02-28T20:37:25.132Z,78.23
2023-02-28T20:39:54.693Z,78.00
2023-02-28T20:42:22.575Z,77.41
2023-02-28T20:44:53.008Z,78.04
2023-02-28T20:47:22.593Z,77.83
2023-02-28T20:49:52.181Z,77.71
2023-02-28T20:52:21.809Z,77.94
2023-02-28T20:54:51.360Z,78.63
2023-02-28T20:57:20.836Z,78.07
2023-02-28T20:59:50.356Z,78.08
2023-02-28T21:02:21.458Z,77.95
2023-02-28T21:04:51.025Z,77.65
2023-02-28T21:07:20.531Z,77.91
2023-02-28T21:09:50.110Z,78.65
2023-02-28T21:12:19.709Z,78.34
2023-02-28T21:14:49.313Z,79.44
2023-02-28T21:17:17.064Z,78.47
2023-02-28T21:19:47.174Z,77.07
2023-02-28T21:22:16.910Z,77.15
2023-02-28T21:24:46.491Z,78.20
2023-02-28T21:27:16.574Z,78.17
2023-02-28T21:29:46.079Z,78.22
2023-02-28T21:32:15.789Z,78.75
2023-02-28T21:34:44.562Z,78.79
2023-02-28T21:37:13.216Z,78.13
2023-02-28T21:39:42.680Z,78.25
2023-02-28T21:42:13.157Z,79.04
2023-02-28T21:44:41.952Z,79.46
2023-02-28T21:47:10.663Z,79.17
2023-02-28T21:49:40.134Z,79.08
2023-02-28T21:52:08.828Z,79.08
2023-02-28T21:54:38.370Z,79.17
2023-02-28T21:57:07.965Z,79.46
2023-02-28T21:59:37.690Z,78.80
2023-02-28T22:02:10.824Z,79.18
2023-02-28T22:04:40.388Z,78.78
2023-02-28T22:07:09.129Z,78.15
2023-02-28T22:09:38.671Z,78.34
2023-02-28T22:12:08.662Z,78.43
2023-02-28T22:14:41.830Z,77.90
2023-02-28T22:17:10.569Z,78.27
2023-02-28T22:19:39.415Z,78.54
2023-02-28T22:22:09.008Z,78.47
2023-02-28T22:24:38.608Z,78.32
2023-02-28T22:27:08.230Z,78.30
2023-02-28T22:29:37.756Z,77.94
2023-02-28T22:32:11.186Z,77.66
2023-02-28T22:34:41.138Z,77.82
2023-02-28T22:37:09.852Z,77.49
2023-02-28T22:39:39.492Z,77.21
2023-02-28T22:42:09.879Z,77.92
2023-02-28T22:44:38.535Z,78.07
2023-02-28T22:47:08.276Z,79.11
2023-02-28T22:49:37.929Z,78.37
2023-02-28T22:52:07.453Z,78.87
2023-02-28T22:54:36.970Z,78.29
2023-02-28T22:57:06.412Z,78.08
2023-02-28T22:59:35.920Z,78.13
2023-02-28T23:02:04.606Z,78.31
2023-02-28T23:04:33.389Z,78.54
2023-02-28T23:07:02.912Z,77.90
2023-02-28T23:09:31.624Z,78.49
2023-02-28T23:12:00.317Z,79.32
2023-02-28T23:14:29.025Z,78.21
2023-02-28T23:16:59.030Z,77.71
2023-02-28T23:19:31.163Z,77.43
2023-02-28T23:22:02.987Z,78.30
2023-02-28T23:24:34.967Z,77.99
2023-02-28T23:27:07.190Z,78.13
2023-02-28T23:29:37.417Z,78.07
2023-02-28T23:32:07.210Z,78.25
2023-02-28T23:34:36.816Z,78.55
2023-02-28T23:37:06.568Z,78.54
2023-02-28T23:39:36.041Z,78.98
2023-02-28T23:42:05.543Z,79.60
2023-02-28T23:44:35.314Z,79.31
2023-02-28T23:47:04.883Z,78.60
2023-02-28T23:49:33.653Z,78.53
2023-02-28T23:52:02.363Z,78.54
2023-02-28T23:54:31.244Z,78.15
2023-02-28T23:57:00.747Z,78.55
2023-02-28T23:59:30.254Z,79.07
